sensor_id;sensor_type;location;lat;lon;timestamp;P1;durP1;ratioP1;P2;durP2;ratioP2
59016;SDS011;44800;55.600;38.134;2022-07-23T00:01:47;13.02;;;8.30;;
59016;SDS011;44800;55.600;38.134;2022-07-23T00:04:16;13.68;;;8.57;;
59016;SDS011;44800;55.600;38.134;2022-07-23T00:06:44;12.23;;;7.93;;
59016;SDS011;44800;55.600;38.134;2022-07-23T00:09:12;14.35;;;7.72;;
59016;SDS011;44800;55.600;38.134;2022-07-23T00:11:40;10.45;;;8.10;;
59016;SDS011;44800;55.600;38.134;2022-07-23T00:14:10;9.43;;;7.38;;
59016;SDS011;44800;55.600;38.134;2022-07-23T00:16:38;11.70;;;8.10;;
59016;SDS011;44800;55.600;38.134;2022-07-23T00:19:07;11.98;;;8.27;;
59016;SDS011;44800;55.600;38.134;2022-07-23T00:21:35;12.65;;;8.35;;
59016;SDS011;44800;55.600;38.134;2022-07-23T00:24:04;11.27;;;8.23;;
59016;SDS011;44800;55.600;38.134;2022-07-23T00:26:32;12.57;;;8.25;;
59016;SDS011;44800;55.600;38.134;2022-07-23T00:29:01;9.27;;;8.20;;
59016;SDS011;44800;55.600;38.134;2022-07-23T00:31:31;10.00;;;8.15;;
59016;SDS011;44800;55.600;38.134;2022-07-23T00:33:59;9.85;;;7.35;;
59016;SDS011;44800;55.600;38.134;2022-07-23T00:36:32;12.73;;;8.55;;
59016;SDS011;44800;55.600;38.134;2022-07-23T00:39:00;11.90;;;7.30;;
59016;SDS011;44800;55.600;38.134;2022-07-23T00:41:31;10.77;;;7.75;;
59016;SDS011;44800;55.600;38.134;2022-07-23T00:44:13;11.27;;;8.02;;
59016;SDS011;44800;55.600;38.134;2022-07-23T00:46:49;9.25;;;7.80;;
59016;SDS011;44800;55.600;38.134;2022-07-23T00:49:20;10.45;;;7.70;;
59016;SDS011;44800;55.600;38.134;2022-07-23T00:51:49;11.25;;;9.32;;
59016;SDS011;44800;55.600;38.134;2022-07-23T00:54:19;10.90;;;8.23;;
59016;SDS011;44800;55.600;38.134;2022-07-23T00:56:49;11.93;;;7.90;;
59016;SDS011;44800;55.600;38.134;2022-07-23T00:59:17;12.20;;;7.88;;
59016;SDS011;44800;55.600;38.134;2022-07-23T01:01:46;8.90;;;7.75;;
59016;SDS011;44800;55.600;38.134;2022-07-23T01:04:16;12.13;;;7.82;;
59016;SDS011;44800;55.600;38.134;2022-07-23T01:06:45;14.45;;;8.55;;
59016;SDS011;44800;55.600;38.134;2022-07-23T01:09:14;10.73;;;8.05;;
59016;SDS011;44800;55.600;38.134;2022-07-23T01:11:42;12.55;;;7.70;;
59016;SDS011;44800;55.600;38.134;2022-07-23T01:14:12;10.18;;;7.88;;
59016;SDS011;44800;55.600;38.134;2022-07-23T01:16:43;9.93;;;7.93;;
59016;SDS011;44800;55.600;38.134;2022-07-23T01:19:12;9.40;;;8.10;;
59016;SDS011;44800;55.600;38.134;2022-07-23T01:21:43;10.43;;;7.97;;
59016;SDS011;44800;55.600;38.134;2022-07-23T01:24:15;19.55;;;8.43;;
59016;SDS011;44800;55.600;38.134;2022-07-23T01:26:46;10.85;;;7.90;;
59016;SDS011;44800;55.600;38.134;2022-07-23T01:29:15;10.10;;;8.65;;
59016;SDS011;44800;55.600;38.134;2022-07-23T01:31:43;9.45;;;7.00;;
59016;SDS011;44800;55.600;38.134;2022-07-23T01:34:12;9.18;;;7.57;;
59016;SDS011;44800;55.600;38.134;2022-07-23T01:36:40;12.20;;;8.25;;
59016;SDS011;44800;55.600;38.134;2022-07-23T01:39:09;12.55;;;8.13;;
59016;SDS011;44800;55.600;38.134;2022-07-23T01:41:39;13.10;;;8.68;;
59016;SDS011;44800;55.600;38.134;2022-07-23T01:44:09;13.70;;;8.55;;
59016;SDS011;44800;55.600;38.134;2022-07-23T01:46:38;12.55;;;8.82;;
59016;SDS011;44800;55.600;38.134;2022-07-23T01:49:06;9.57;;;8.20;;
59016;SDS011;44800;55.600;38.134;2022-07-23T01:51:35;11.02;;;8.55;;
59016;SDS011;44800;55.600;38.134;2022-07-23T01:54:03;10.70;;;7.97;;
59016;SDS011;44800;55.600;38.134;2022-07-23T01:56:31;11.70;;;9.18;;
59016;SDS011;44800;55.600;38.134;2022-07-23T01:59:01;12.10;;;8.07;;
59016;SDS011;44800;55.600;38.134;2022-07-23T02:01:30;11.98;;;8.38;;
59016;SDS011;44800;55.600;38.134;2022-07-23T02:03:59;12.43;;;8.23;;
59016;SDS011;44800;55.600;38.134;2022-07-23T02:06:27;13.15;;;8.90;;
59016;SDS011;44800;55.600;38.134;2022-07-23T02:08:55;11.57;;;8.68;;
59016;SDS011;44800;55.600;38.134;2022-07-23T02:11:24;13.98;;;8.80;;
59016;SDS011;44800;55.600;38.134;2022-07-23T02:13:53;12.05;;;8.63;;
59016;SDS011;44800;55.600;38.134;2022-07-23T02:16:22;9.70;;;8.00;;
59016;SDS011;44800;55.600;38.134;2022-07-23T02:18:51;14.85;;;8.43;;
59016;SDS011;44800;55.600;38.134;2022-07-23T02:21:21;13.57;;;9.15;;
59016;SDS011;44800;55.600;38.134;2022-07-23T02:23:51;9.27;;;7.93;;
59016;SDS011;44800;55.600;38.134;2022-07-23T02:26:19;16.77;;;9.10;;
59016;SDS011;44800;55.600;38.134;2022-07-23T02:28:47;16.38;;;8.00;;
59016;SDS011;44800;55.600;38.134;2022-07-23T02:31:15;11.98;;;8.40;;
59016;SDS011;44800;55.600;38.134;2022-07-23T02:33:48;11.52;;;8.80;;
59016;SDS011;44800;55.600;38.134;2022-07-23T02:36:19;12.48;;;9.52;;
59016;SDS011;44800;55.600;38.134;2022-07-23T02:38:47;10.48;;;8.07;;
59016;SDS011;44800;55.600;38.134;2022-07-23T02:41:15;9.82;;;8.85;;
59016;SDS011;44800;55.600;38.134;2022-07-23T02:43:44;11.38;;;8.93;;
59016;SDS011;44800;55.600;38.134;2022-07-23T02:46:12;11.07;;;8.60;;
59016;SDS011;44800;55.600;38.134;2022-07-23T02:48:41;16.17;;;9.68;;
59016;SDS011;44800;55.600;38.134;2022-07-23T02:51:10;9.30;;;7.55;;
59016;SDS011;44800;55.600;38.134;2022-07-23T02:53:40;11.55;;;7.72;;
59016;SDS011;44800;55.600;38.134;2022-07-23T02:56:09;10.48;;;8.15;;
59016;SDS011;44800;55.600;38.134;2022-07-23T02:58:37;14.63;;;9.18;;
59016;SDS011;44800;55.600;38.134;2022-07-23T03:01:05;16.90;;;8.52;;
59016;SDS011;44800;55.600;38.134;2022-07-23T03:03:34;13.25;;;8.70;;
59016;SDS011;44800;55.600;38.134;2022-07-23T03:06:02;13.27;;;8.25;;
59016;SDS011;44800;55.600;38.134;2022-07-23T03:08:32;9.80;;;7.03;;
59016;SDS011;44800;55.600;38.134;2022-07-23T03:11:00;11.63;;;8.15;;
59016;SDS011;44800;55.600;38.134;2022-07-23T03:13:29;12.13;;;8.13;;
59016;SDS011;44800;55.600;38.134;2022-07-23T03:15:59;11.82;;;8.27;;
59016;SDS011;44800;55.600;38.134;2022-07-23T03:18:28;9.23;;;7.63;;
59016;SDS011;44800;55.600;38.134;2022-07-23T03:20:56;14.50;;;7.47;;
59016;SDS011;44800;55.600;38.134;2022-07-23T03:23:24;11.38;;;7.75;;
59016;SDS011;44800;55.600;38.134;2022-07-23T03:25:54;12.65;;;8.43;;
59016;SDS011;44800;55.600;38.134;2022-07-23T03:28:22;13.82;;;8.82;;
59016;SDS011;44800;55.600;38.134;2022-07-23T03:30:51;12.50;;;8.73;;
59016;SDS011;44800;55.600;38.134;2022-07-23T03:33:19;12.27;;;8.15;;
59016;SDS011;44800;55.600;38.134;2022-07-23T03:35:48;14.68;;;8.07;;
59016;SDS011;44800;55.600;38.134;2022-07-23T03:38:17;11.20;;;8.07;;
59016;SDS011;44800;55.600;38.134;2022-07-23T03:40:46;20.63;;;7.97;;
59016;SDS011;44800;55.600;38.134;2022-07-23T03:43:15;12.75;;;7.50;;
59016;SDS011;44800;55.600;38.134;2022-07-23T03:45:46;17.08;;;9.40;;
59016;SDS011;44800;55.600;38.134;2022-07-23T03:48:15;15.23;;;7.90;;
59016;SDS011;44800;55.600;38.134;2022-07-23T03:50:43;43.17;;;10.40;;
59016;SDS011;44800;55.600;38.134;2022-07-23T03:53:12;12.10;;;7.93;;
59016;SDS011;44800;55.600;38.134;2022-07-23T03:55:41;11.25;;;7.95;;
59016;SDS011;44800;55.600;38.134;2022-07-23T03:58:09;21.45;;;7.93;;
59016;SDS011;44800;55.600;38.134;2022-07-23T04:00:39;10.90;;;7.47;;
59016;SDS011;44800;55.600;38.134;2022-07-23T04:03:07;10.55;;;8.50;;
59016;SDS011;44800;55.600;38.134;2022-07-23T04:05:36;13.35;;;7.90;;
59016;SDS011;44800;55.600;38.134;2022-07-23T04:08:04;12.13;;;8.57;;
59016;SDS011;44800;55.600;38.134;2022-07-23T04:10:32;28.05;;;9.10;;
59016;SDS011;44800;55.600;38.134;2022-07-23T04:13:00;11.30;;;7.95;;
59016;SDS011;44800;55.600;38.134;2022-07-23T04:15:29;11.70;;;7.32;;
59016;SDS011;44800;55.600;38.134;2022-07-23T04:17:58;10.55;;;8.05;;
59016;SDS011;44800;55.600;38.134;2022-07-23T04:20:27;8.38;;;7.35;;
59016;SDS011;44800;55.600;38.134;2022-07-23T04:22:55;10.82;;;6.90;;
59016;SDS011;44800;55.600;38.134;2022-07-23T04:25:23;10.38;;;7.60;;
59016;SDS011;44800;55.600;38.134;2022-07-23T04:27:51;14.48;;;8.32;;
59016;SDS011;44800;55.600;38.134;2022-07-23T04:30:20;21.92;;;13.85;;
59016;SDS011;44800;55.600;38.134;2022-07-23T04:32:48;10.85;;;8.73;;
59016;SDS011;44800;55.600;38.134;2022-07-23T04:35:18;11.88;;;8.65;;
59016;SDS011;44800;55.600;38.134;2022-07-23T04:37:46;10.75;;;7.65;;
59016;SDS011;44800;55.600;38.134;2022-07-23T04:40:14;11.93;;;8.68;;
59016;SDS011;44800;55.600;38.134;2022-07-23T04:42:44;8.00;;;7.18;;
59016;SDS011;44800;55.600;38.134;2022-07-23T04:45:12;12.27;;;7.60;;
59016;SDS011;44800;55.600;38.134;2022-07-23T04:47:40;9.20;;;7.78;;
59016;SDS011;44800;55.600;38.134;2022-07-23T04:50:09;11.90;;;8.10;;
59016;SDS011;44800;55.600;38.134;2022-07-23T04:52:39;9.20;;;7.45;;
59016;SDS011;44800;55.600;38.134;2022-07-23T04:55:08;9.32;;;7.40;;
59016;SDS011;44800;55.600;38.134;2022-07-23T04:57:36;10.13;;;7.30;;
59016;SDS011;44800;55.600;38.134;2022-07-23T05:00:05;11.57;;;7.68;;
59016;SDS011;44800;55.600;38.134;2022-07-23T05:02:35;9.70;;;7.80;;
59016;SDS011;44800;55.600;38.134;2022-07-23T05:05:04;9.75;;;7.55;;
59016;SDS011;44800;55.600;38.134;2022-07-23T05:07:33;9.07;;;7.88;;
59016;SDS011;44800;55.600;38.134;2022-07-23T05:10:03;12.35;;;8.77;;
59016;SDS011;44800;55.600;38.134;2022-07-23T05:12:33;14.85;;;8.73;;
59016;SDS011;44800;55.600;38.134;2022-07-23T05:15:01;9.57;;;7.10;;
59016;SDS011;44800;55.600;38.134;2022-07-23T05:17:30;12.07;;;9.40;;
59016;SDS011;44800;55.600;38.134;2022-07-23T05:19:58;12.95;;;8.20;;
59016;SDS011;44800;55.600;38.134;2022-07-23T05:22:28;10.30;;;8.35;;
59016;SDS011;44800;55.600;38.134;2022-07-23T05:24:57;12.90;;;8.02;;
59016;SDS011;44800;55.600;38.134;2022-07-23T05:27:26;11.15;;;7.55;;
59016;SDS011;44800;55.600;38.134;2022-07-23T05:29:55;11.68;;;7.95;;
59016;SDS011;44800;55.600;38.134;2022-07-23T05:32:23;10.27;;;7.75;;
59016;SDS011;44800;55.600;38.134;2022-07-23T05:34:51;11.93;;;8.13;;
59016;SDS011;44800;55.600;38.134;2022-07-23T05:37:19;8.02;;;7.22;;
59016;SDS011;44800;55.600;38.134;2022-07-23T05:39:48;9.57;;;7.93;;
59016;SDS011;44800;55.600;38.134;2022-07-23T05:42:16;12.68;;;8.05;;
59016;SDS011;44800;55.600;38.134;2022-07-23T05:44:46;11.25;;;8.52;;
59016;SDS011;44800;55.600;38.134;2022-07-23T05:47:14;10.00;;;7.85;;
59016;SDS011;44800;55.600;38.134;2022-07-23T05:49:42;11.95;;;8.05;;
59016;SDS011;44800;55.600;38.134;2022-07-23T05:52:11;9.70;;;8.05;;
59016;SDS011;44800;55.600;38.134;2022-07-23T05:54:39;10.40;;;8.40;;
59016;SDS011;44800;55.600;38.134;2022-07-23T05:57:08;8.55;;;7.28;;
59016;SDS011;44800;55.600;38.134;2022-07-23T05:59:36;10.90;;;7.65;;
59016;SDS011;44800;55.600;38.134;2022-07-23T06:02:06;12.35;;;8.20;;
59016;SDS011;44800;55.600;38.134;2022-07-23T06:04:34;11.05;;;9.60;;
59016;SDS011;44800;55.600;38.134;2022-07-23T06:07:03;11.05;;;7.50;;
59016;SDS011;44800;55.600;38.134;2022-07-23T06:09:31;8.77;;;7.43;;
59016;SDS011;44800;55.600;38.134;2022-07-23T06:11:59;9.13;;;8.05;;
59016;SDS011;44800;55.600;38.134;2022-07-23T06:14:27;8.57;;;7.47;;
59016;SDS011;44800;55.600;38.134;2022-07-23T06:16:56;11.90;;;8.05;;
59016;SDS011;44800;55.600;38.134;2022-07-23T06:19:25;10.00;;;8.13;;
59016;SDS011;44800;55.600;38.134;2022-07-23T06:21:54;11.07;;;8.70;;
59016;SDS011;44800;55.600;38.134;2022-07-23T06:24:22;14.77;;;9.15;;
59016;SDS011;44800;55.600;38.134;2022-07-23T06:26:50;12.38;;;8.77;;
59016;SDS011;44800;55.600;38.134;2022-07-23T06:29:19;12.35;;;8.05;;
59016;SDS011;44800;55.600;38.134;2022-07-23T06:31:47;11.23;;;7.97;;
59016;SDS011;44800;55.600;38.134;2022-07-23T06:34:18;11.23;;;8.07;;
59016;SDS011;44800;55.600;38.134;2022-07-23T06:36:47;12.73;;;8.93;;
59016;SDS011;44800;55.600;38.134;2022-07-23T06:39:16;13.13;;;8.32;;
59016;SDS011;44800;55.600;38.134;2022-07-23T06:41:44;9.98;;;8.68;;
59016;SDS011;44800;55.600;38.134;2022-07-23T06:44:17;13.10;;;8.93;;
59016;SDS011;44800;55.600;38.134;2022-07-23T06:46:47;9.52;;;8.05;;
59016;SDS011;44800;55.600;38.134;2022-07-23T06:49:17;10.63;;;7.88;;
59016;SDS011;44800;55.600;38.134;2022-07-23T06:51:47;10.25;;;8.38;;
59016;SDS011;44800;55.600;38.134;2022-07-23T06:54:16;12.25;;;8.90;;
59016;SDS011;44800;55.600;38.134;2022-07-23T06:56:44;9.18;;;8.07;;
59016;SDS011;44800;55.600;38.134;2022-07-23T06:59:12;10.25;;;8.63;;
59016;SDS011;44800;55.600;38.134;2022-07-23T07:01:40;9.35;;;8.45;;
59016;SDS011;44800;55.600;38.134;2022-07-23T07:04:09;10.75;;;8.63;;
59016;SDS011;44800;55.600;38.134;2022-07-23T07:06:37;13.75;;;8.93;;
59016;SDS011;44800;55.600;38.134;2022-07-23T07:09:07;12.13;;;9.07;;
59016;SDS011;44800;55.600;38.134;2022-07-23T07:11:35;12.57;;;9.45;;
59016;SDS011;44800;55.600;38.134;2022-07-23T07:14:04;10.20;;;8.63;;
59016;SDS011;44800;55.600;38.134;2022-07-23T07:16:33;11.52;;;8.55;;
59016;SDS011;44800;55.600;38.134;2022-07-23T07:19:01;12.35;;;9.85;;
59016;SDS011;44800;55.600;38.134;2022-07-23T07:21:30;10.48;;;8.50;;
59016;SDS011;44800;55.600;38.134;2022-07-23T07:23:58;13.23;;;7.95;;
59016;SDS011;44800;55.600;38.134;2022-07-23T07:26:28;10.75;;;8.38;;
59016;SDS011;44800;55.600;38.134;2022-07-23T07:28:57;14.27;;;9.13;;
59016;SDS011;44800;55.600;38.134;2022-07-23T07:31:26;10.55;;;8.50;;
59016;SDS011;44800;55.600;38.134;2022-07-23T07:33:54;9.07;;;8.13;;
59016;SDS011;44800;55.600;38.134;2022-07-23T07:36:24;10.50;;;8.13;;
59016;SDS011;44800;55.600;38.134;2022-07-23T07:38:52;9.82;;;8.55;;
59016;SDS011;44800;55.600;38.134;2022-07-23T07:41:20;10.13;;;8.48;;
59016;SDS011;44800;55.600;38.134;2022-07-23T07:43:52;10.13;;;9.10;;
59016;SDS011;44800;55.600;38.134;2022-07-23T07:46:20;13.05;;;9.25;;
59016;SDS011;44800;55.600;38.134;2022-07-23T07:48:50;11.07;;;7.90;;
59016;SDS011;44800;55.600;38.134;2022-07-23T07:53:51;11.27;;;8.68;;
59016;SDS011;44800;55.600;38.134;2022-07-23T07:56:20;10.10;;;8.98;;
59016;SDS011;44800;55.600;38.134;2022-07-23T07:58:48;10.88;;;8.55;;
59016;SDS011;44800;55.600;38.134;2022-07-23T08:01:18;11.20;;;8.15;;
59016;SDS011;44800;55.600;38.134;2022-07-23T08:03:47;10.93;;;9.55;;
59016;SDS011;44800;55.600;38.134;2022-07-23T08:06:18;12.40;;;9.60;;
59016;SDS011;44800;55.600;38.134;2022-07-23T08:08:48;12.73;;;9.38;;
59016;SDS011;44800;55.600;38.134;2022-07-23T08:11:17;10.43;;;9.43;;
59016;SDS011;44800;55.600;38.134;2022-07-23T08:13:45;11.63;;;8.88;;
59016;SDS011;44800;55.600;38.134;2022-07-23T08:16:13;15.65;;;9.93;;
59016;SDS011;44800;55.600;38.134;2022-07-23T08:18:44;13.23;;;10.02;;
59016;SDS011;44800;55.600;38.134;2022-07-23T08:21:12;10.32;;;8.98;;
59016;SDS011;44800;55.600;38.134;2022-07-23T08:23:42;13.20;;;9.25;;
59016;SDS011;44800;55.600;38.134;2022-07-23T08:26:11;15.55;;;9.68;;
59016;SDS011;44800;55.600;38.134;2022-07-23T08:28:39;11.65;;;9.65;;
59016;SDS011;44800;55.600;38.134;2022-07-23T08:31:07;12.70;;;10.65;;
59016;SDS011;44800;55.600;38.134;2022-07-23T08:33:38;12.90;;;10.90;;
59016;SDS011;44800;55.600;38.134;2022-07-23T08:36:08;13.93;;;10.55;;
59016;SDS011;44800;55.600;38.134;2022-07-23T08:38:37;12.68;;;10.85;;
59016;SDS011;44800;55.600;38.134;2022-07-23T08:41:05;16.35;;;9.82;;
59016;SDS011;44800;55.600;38.134;2022-07-23T08:43:35;16.33;;;9.65;;
59016;SDS011;44800;55.600;38.134;2022-07-23T08:46:03;12.68;;;9.77;;
59016;SDS011;44800;55.600;38.134;2022-07-23T08:48:36;12.63;;;10.00;;
59016;SDS011;44800;55.600;38.134;2022-07-23T08:51:06;11.07;;;9.13;;
59016;SDS011;44800;55.600;38.134;2022-07-23T08:53:37;10.60;;;9.50;;
59016;SDS011;44800;55.600;38.134;2022-07-23T08:56:05;11.20;;;10.00;;
59016;SDS011;44800;55.600;38.134;2022-07-23T08:58:35;13.32;;;9.68;;
59016;SDS011;44800;55.600;38.134;2022-07-23T09:01:04;11.32;;;10.23;;
59016;SDS011;44800;55.600;38.134;2022-07-23T09:03:33;11.57;;;9.98;;
59016;SDS011;44800;55.600;38.134;2022-07-23T09:06:02;16.50;;;11.02;;
59016;SDS011;44800;55.600;38.134;2022-07-23T09:08:36;14.20;;;10.55;;
59016;SDS011;44800;55.600;38.134;2022-07-23T09:11:05;12.10;;;9.80;;
59016;SDS011;44800;55.600;38.134;2022-07-23T09:13:36;12.05;;;10.27;;
59016;SDS011;44800;55.600;38.134;2022-07-23T09:16:07;13.18;;;10.73;;
59016;SDS011;44800;55.600;38.134;2022-07-23T09:18:38;11.98;;;10.73;;
59016;SDS011;44800;55.600;38.134;2022-07-23T09:21:17;12.38;;;11.07;;
59016;SDS011;44800;55.600;38.134;2022-07-23T09:23:50;11.60;;;10.00;;
59016;SDS011;44800;55.600;38.134;2022-07-23T09:26:26;14.48;;;9.77;;
59016;SDS011;44800;55.600;38.134;2022-07-23T09:29:06;12.93;;;9.80;;
59016;SDS011;44800;55.600;38.134;2022-07-23T09:31:43;12.95;;;10.35;;
59016;SDS011;44800;55.600;38.134;2022-07-23T09:34:14;12.07;;;10.50;;
59016;SDS011;44800;55.600;38.134;2022-07-23T09:36:44;12.27;;;10.60;;
59016;SDS011;44800;55.600;38.134;2022-07-23T09:39:16;14.98;;;11.00;;
59016;SDS011;44800;55.600;38.134;2022-07-23T09:41:52;12.32;;;10.35;;
59016;SDS011;44800;55.600;38.134;2022-07-23T09:44:23;11.73;;;10.48;;
59016;SDS011;44800;55.600;38.134;2022-07-23T09:46:57;13.52;;;10.60;;
59016;SDS011;44800;55.600;38.134;2022-07-23T09:49:26;12.45;;;11.15;;
59016;SDS011;44800;55.600;38.134;2022-07-23T09:51:56;12.10;;;9.55;;
59016;SDS011;44800;55.600;38.134;2022-07-23T09:54:30;16.70;;;11.13;;
59016;SDS011;44800;55.600;38.134;2022-07-23T09:59:36;12.90;;;11.10;;
59016;SDS011;44800;55.600;38.134;2022-07-23T10:02:09;12.35;;;10.30;;
59016;SDS011;44800;55.600;38.134;2022-07-23T10:04:40;11.95;;;10.70;;
59016;SDS011;44800;55.600;38.134;2022-07-23T10:07:09;12.40;;;10.05;;
59016;SDS011;44800;55.600;38.134;2022-07-23T10:09:40;17.45;;;11.05;;
59016;SDS011;44800;55.600;38.134;2022-07-23T10:12:10;14.85;;;11.10;;
59016;SDS011;44800;55.600;38.134;2022-07-23T10:14:46;17.75;;;10.18;;
59016;SDS011;44800;55.600;38.134;2022-07-23T10:17:17;12.10;;;10.90;;
59016;SDS011;44800;55.600;38.134;2022-07-23T10:19:46;15.38;;;11.70;;
59016;SDS011;44800;55.600;38.134;2022-07-23T10:22:18;15.48;;;11.65;;
59016;SDS011;44800;55.600;38.134;2022-07-23T10:24:52;12.20;;;10.93;;
59016;SDS011;44800;55.600;38.134;2022-07-23T10:27:31;14.23;;;10.93;;
59016;SDS011;44800;55.600;38.134;2022-07-23T10:30:19;12.75;;;11.23;;
59016;SDS011;44800;55.600;38.134;2022-07-23T10:32:52;13.23;;;11.85;;
59016;SDS011;44800;55.600;38.134;2022-07-23T10:35:26;15.20;;;11.48;;
59016;SDS011;44800;55.600;38.134;2022-07-23T10:38:01;29.95;;;11.65;;
59016;SDS011;44800;55.600;38.134;2022-07-23T10:40:32;11.40;;;9.77;;
59016;SDS011;44800;55.600;38.134;2022-07-23T10:43:00;15.68;;;11.15;;
59016;SDS011;44800;55.600;38.134;2022-07-23T10:45:29;14.23;;;12.25;;
59016;SDS011;44800;55.600;38.134;2022-07-23T10:48:11;13.60;;;11.32;;
59016;SDS011;44800;55.600;38.134;2022-07-23T10:50:41;15.30;;;11.13;;
59016;SDS011;44800;55.600;38.134;2022-07-23T10:53:11;13.43;;;11.85;;
59016;SDS011;44800;55.600;38.134;2022-07-23T10:55:48;15.40;;;10.98;;
59016;SDS011;44800;55.600;38.134;2022-07-23T10:58:22;13.07;;;11.70;;
59016;SDS011;44800;55.600;38.134;2022-07-23T11:00:53;15.98;;;11.65;;
59016;SDS011;44800;55.600;38.134;2022-07-23T11:03:28;13.00;;;11.60;;
59016;SDS011;44800;55.600;38.134;2022-07-23T11:06:02;14.52;;;12.43;;
59016;SDS011;44800;55.600;38.134;2022-07-23T11:08:32;19.25;;;12.20;;
59016;SDS011;44800;55.600;38.134;2022-07-23T11:11:11;14.45;;;12.15;;
59016;SDS011;44800;55.600;38.134;2022-07-23T11:13:42;13.90;;;12.13;;
59016;SDS011;44800;55.600;38.134;2022-07-23T11:16:14;16.30;;;11.05;;
59016;SDS011;44800;55.600;38.134;2022-07-23T11:18:54;13.85;;;11.45;;
59016;SDS011;44800;55.600;38.134;2022-07-23T11:21:45;15.68;;;11.55;;
59016;SDS011;44800;55.600;38.134;2022-07-23T11:26:48;13.90;;;12.27;;
59016;SDS011;44800;55.600;38.134;2022-07-23T11:29:42;12.85;;;11.23;;
59016;SDS011;44800;55.600;38.134;2022-07-23T11:32:28;12.43;;;11.07;;
59016;SDS011;44800;55.600;38.134;2022-07-23T11:34:59;14.32;;;11.95;;
59016;SDS011;44800;55.600;38.134;2022-07-23T11:37:34;14.57;;;12.00;;
59016;SDS011;44800;55.600;38.134;2022-07-23T11:40:06;12.27;;;10.98;;
59016;SDS011;44800;55.600;38.134;2022-07-23T11:42:38;13.00;;;11.68;;
59016;SDS011;44800;55.600;38.134;2022-07-23T11:45:08;13.25;;;11.70;;
59016;SDS011;44800;55.600;38.134;2022-07-23T11:47:36;14.88;;;11.35;;
59016;SDS011;44800;55.600;38.134;2022-07-23T11:50:05;14.52;;;13.02;;
59016;SDS011;44800;55.600;38.134;2022-07-23T11:52:34;14.70;;;11.13;;
59016;SDS011;44800;55.600;38.134;2022-07-23T11:55:03;12.32;;;11.02;;
59016;SDS011;44800;55.600;38.134;2022-07-23T11:57:33;13.93;;;12.32;;
59016;SDS011;44800;55.600;38.134;2022-07-23T12:00:05;13.40;;;12.00;;
59016;SDS011;44800;55.600;38.134;2022-07-23T12:02:38;14.75;;;12.07;;
59016;SDS011;44800;55.600;38.134;2022-07-23T12:05:07;16.10;;;11.80;;
59016;SDS011;44800;55.600;38.134;2022-07-23T12:07:36;13.00;;;11.63;;
59016;SDS011;44800;55.600;38.134;2022-07-23T12:10:09;13.73;;;12.32;;
59016;SDS011;44800;55.600;38.134;2022-07-23T12:12:41;18.38;;;12.13;;
59016;SDS011;44800;55.600;38.134;2022-07-23T12:15:12;17.20;;;12.52;;
59016;SDS011;44800;55.600;38.134;2022-07-23T12:17:44;17.48;;;12.23;;
59016;SDS011;44800;55.600;38.134;2022-07-23T12:20:18;15.25;;;12.77;;
59016;SDS011;44800;55.600;38.134;2022-07-23T12:22:48;13.57;;;12.07;;
59016;SDS011;44800;55.600;38.134;2022-07-23T12:25:18;16.88;;;13.27;;
59016;SDS011;44800;55.600;38.134;2022-07-23T12:27:57;12.80;;;10.77;;
59016;SDS011;44800;55.600;38.134;2022-07-23T12:30:29;16.10;;;11.57;;
59016;SDS011;44800;55.600;38.134;2022-07-23T12:33:00;14.77;;;11.10;;
59016;SDS011;44800;55.600;38.134;2022-07-23T12:35:36;56.58;;;16.23;;
59016;SDS011;44800;55.600;38.134;2022-07-23T12:38:07;13.90;;;12.45;;
59016;SDS011;44800;55.600;38.134;2022-07-23T12:40:37;13.95;;;10.63;;
59016;SDS011;44800;55.600;38.134;2022-07-23T12:43:10;13.10;;;11.32;;
59016;SDS011;44800;55.600;38.134;2022-07-23T12:45:48;15.13;;;11.93;;
59016;SDS011;44800;55.600;38.134;2022-07-23T12:48:19;12.07;;;10.55;;
59016;SDS011;44800;55.600;38.134;2022-07-23T12:50:53;12.10;;;10.70;;
59016;SDS011;44800;55.600;38.134;2022-07-23T12:53:26;14.32;;;12.02;;
59016;SDS011;44800;55.600;38.134;2022-07-23T12:56:00;12.65;;;10.88;;
59016;SDS011;44800;55.600;38.134;2022-07-23T12:58:44;13.65;;;10.80;;
59016;SDS011;44800;55.600;38.134;2022-07-23T13:01:36;16.77;;;12.60;;
59016;SDS011;44800;55.600;38.134;2022-07-23T13:04:05;14.88;;;11.77;;
59016;SDS011;44800;55.600;38.134;2022-07-23T13:06:40;13.02;;;11.52;;
59016;SDS011;44800;55.600;38.134;2022-07-23T13:09:10;13.23;;;11.75;;
59016;SDS011;44800;55.600;38.134;2022-07-23T13:11:43;12.70;;;11.40;;
59016;SDS011;44800;55.600;38.134;2022-07-23T13:14:13;10.52;;;9.43;;
59016;SDS011;44800;55.600;38.134;2022-07-23T13:16:48;11.02;;;9.82;;
59016;SDS011;44800;55.600;38.134;2022-07-23T13:19:17;14.63;;;10.63;;
59016;SDS011;44800;55.600;38.134;2022-07-23T13:21:50;13.43;;;11.20;;
59016;SDS011;44800;55.600;38.134;2022-07-23T13:24:20;14.02;;;10.65;;
59016;SDS011;44800;55.600;38.134;2022-07-23T13:26:48;12.93;;;10.60;;
59016;SDS011;44800;55.600;38.134;2022-07-23T13:29:18;11.73;;;10.52;;
59016;SDS011;44800;55.600;38.134;2022-07-23T13:31:49;14.63;;;11.35;;
59016;SDS011;44800;55.600;38.134;2022-07-23T13:34:17;12.02;;;10.68;;
59016;SDS011;44800;55.600;38.134;2022-07-23T13:36:46;11.23;;;10.13;;
59016;SDS011;44800;55.600;38.134;2022-07-23T13:39:14;13.07;;;10.82;;
59016;SDS011;44800;55.600;38.134;2022-07-23T13:41:42;13.30;;;11.27;;
59016;SDS011;44800;55.600;38.134;2022-07-23T13:44:16;13.55;;;11.07;;
59016;SDS011;44800;55.600;38.134;2022-07-23T13:46:45;12.65;;;10.73;;
59016;SDS011;44800;55.600;38.134;2022-07-23T13:49:15;13.27;;;11.10;;
59016;SDS011;44800;55.600;38.134;2022-07-23T13:51:45;14.00;;;10.80;;
59016;SDS011;44800;55.600;38.134;2022-07-23T13:54:14;12.43;;;11.15;;
59016;SDS011;44800;55.600;38.134;2022-07-23T13:56:42;14.68;;;11.07;;
59016;SDS011;44800;55.600;38.134;2022-07-23T13:59:10;14.90;;;11.00;;
59016;SDS011;44800;55.600;38.134;2022-07-23T14:01:39;12.82;;;11.43;;
59016;SDS011;44800;55.600;38.134;2022-07-23T14:04:28;12.55;;;10.30;;
59016;SDS011;44800;55.600;38.134;2022-07-23T14:06:57;14.27;;;11.05;;
59016;SDS011;44800;55.600;38.134;2022-07-23T14:09:25;12.05;;;10.43;;
59016;SDS011;44800;55.600;38.134;2022-07-23T14:11:53;13.45;;;10.90;;
59016;SDS011;44800;55.600;38.134;2022-07-23T14:14:22;11.73;;;10.52;;
59016;SDS011;44800;55.600;38.134;2022-07-23T14:16:50;13.57;;;12.13;;
59016;SDS011;44800;55.600;38.134;2022-07-23T14:19:19;14.80;;;11.52;;
59016;SDS011;44800;55.600;38.134;2022-07-23T14:21:50;14.10;;;12.02;;
59016;SDS011;44800;55.600;38.134;2022-07-23T14:24:18;14.02;;;10.85;;
59016;SDS011;44800;55.600;38.134;2022-07-23T14:26:48;14.07;;;11.40;;
59016;SDS011;44800;55.600;38.134;2022-07-23T14:29:17;13.02;;;11.73;;
59016;SDS011;44800;55.600;38.134;2022-07-23T14:31:45;15.48;;;12.02;;
59016;SDS011;44800;55.600;38.134;2022-07-23T14:34:20;13.70;;;12.23;;
59016;SDS011;44800;55.600;38.134;2022-07-23T14:36:55;15.85;;;12.50;;
59016;SDS011;44800;55.600;38.134;2022-07-23T14:39:23;13.48;;;12.07;;
59016;SDS011;44800;55.600;38.134;2022-07-23T14:41:52;15.23;;;12.57;;
59016;SDS011;44800;55.600;38.134;2022-07-23T14:44:20;13.80;;;11.40;;